Jack Guidry — WDF2422 — position and weather

sailwx.info

Track history (hours):
 
Tides and Currents Weather Stations Pressure Air Temp Water Temp Dewpoint Dewpoint Depression Visibility Wind Speed Wind Dir Waves Ship Positions

Jack Guidry

Owner: Enterprise Marine Services, LLC, San Antonio, TX. More information available from US FCC via Universal Licensing System and Coast Guard Vessel Documentation Center.

Last reported at 2015-May-13 08:15 UTC. Time now 2015-May-22 16:08 UTC.
Position N 29°21' W 094°49'.
Warning: this ship's position is 9 days out of date.

Length 22 m; draft 2.5 m.

Type: Other ship. MMSI: 367003430.

Date/timePositionNaut miles runAvg speedWind from/ knotsBaromVisibWave heightAir tempDewpointWater temp
2015-May-13 08:15N 29°21' W 094°49'2 0.2
2015-May-12 19:32N 29°23' W 094°51'2 0.2
2015-May-12 11:10N 29°22' W 094°53'  
2015-May-04 03:31N 29°30' W 094°52'6 5.8
2015-May-04 02:33N 29°34' W 094°56'6 5.7
2015-May-04 01:33N 29°40' W 094°58'5 5.5
2015-May-04 00:33N 29°44' W 095°02'4 3.5
2015-May-03 23:33N 29°46' W 095°06'0 0.0
2015-May-03 22:33N 29°46' W 095°06'4 3.5
2015-May-03 21:33N 29°44' W 095°02'2 1.6
2015-May-03 20:33N 29°42' W 095°03'0 0.0
2015-May-03 19:33N 29°42' W 095°03'0 0.0
2015-May-03 18:33N 29°42' W 095°03'0 0.0
2015-May-03 17:32N 29°42' W 095°03'0 0.0
2015-May-03 16:33N 29°42' W 095°03'0 0.0
2015-May-03 15:33N 29°42' W 095°03'0 0.0
2015-May-03 14:33N 29°42' W 095°03'0 0.0
2015-May-03 13:34N 29°42' W 095°03'0 0.0
2015-May-03 12:33N 29°42' W 095°03'0 0.0
2015-May-03 11:33N 29°42' W 095°03'0 0.0
2015-May-03 10:33N 29°42' W 095°03'0 0.0
2015-May-03 09:33N 29°42' W 095°03'0 0.0
2015-May-03 08:33N 29°42' W 095°03'  
Track history (hours):
 
Tides and Currents Weather Stations Pressure Air Temp Water Temp Dewpoint Dewpoint Depression Visibility Wind Speed Wind Dir Waves Ship Positions

Jack Guidry

Owner: Enterprise Marine Services, LLC, San Antonio, TX. More information available from US FCC via Universal Licensing System and Coast Guard Vessel Documentation Center.

Last reported at 2015-May-13 08:15 UTC. Time now 2015-May-22 16:08 UTC.
Position N 29°21' W 094°49'.
Warning: this ship's position is 9 days out of date.

Length 22 m; draft 2.5 m.

Type: Other ship. MMSI: 367003430.

Date/timePositionNaut miles runAvg speedWind from/ knotsBaromVisibWave heightAir tempDewpointWater temp
2015-May-13 08:15N 29°21' W 094°49'2 0.2
2015-May-12 19:32N 29°23' W 094°51'2 0.2
2015-May-12 11:10N 29°22' W 094°53'  
2015-May-04 03:31N 29°30' W 094°52'6 5.8
2015-May-04 02:33N 29°34' W 094°56'6 5.7
2015-May-04 01:33N 29°40' W 094°58'5 5.5
2015-May-04 00:33N 29°44' W 095°02'4 3.5
2015-May-03 23:33N 29°46' W 095°06'0 0.0
2015-May-03 22:33N 29°46' W 095°06'4 3.5
2015-May-03 21:33N 29°44' W 095°02'2 1.6
2015-May-03 20:33N 29°42' W 095°03'0 0.0
2015-May-03 19:33N 29°42' W 095°03'0 0.0
2015-May-03 18:33N 29°42' W 095°03'0 0.0
2015-May-03 17:32N 29°42' W 095°03'0 0.0
2015-May-03 16:33N 29°42' W 095°03'0 0.0
2015-May-03 15:33N 29°42' W 095°03'0 0.0
2015-May-03 14:33N 29°42' W 095°03'0 0.0
2015-May-03 13:34N 29°42' W 095°03'0 0.0
2015-May-03 12:33N 29°42' W 095°03'0 0.0
2015-May-03 11:33N 29°42' W 095°03'0 0.0
2015-May-03 10:33N 29°42' W 095°03'0 0.0
2015-May-03 09:33N 29°42' W 095°03'0 0.0
2015-May-03 08:33N 29°42' W 095°03'  

Dump ship's entire track history